Time;durP1;ratioP1;P1;durP2;ratioP2;P2;SDS_P1;SDS_P2;PMS_P1;PMS_P2;Temp;Humidity;BMP_temperature;BMP_pressure;BME280_temperature;BME280_humidity;BME280_pressure;Samples;Min_cycle;Max_cycle;Signal;HPM_P1;HPM_P2
2024/02/07 00:00:31;;;;;;;4.77;0.70;;;7.00;99.90;;;;;;5014590;28;20060;-82
2024/02/07 00:02:57;;;;;;;5.97;1.00;;;7.00;99.90;;;;;;5013251;28;20018;-83
2024/02/07 00:05:23;;;;;;;6.10;0.80;;;7.00;99.90;;;;;;5014670;28;20026;-82
2024/02/07 00:07:48;;;;;;;9.73;1.10;;;6.90;99.90;;;;;;5014679;28;20025;-81
2024/02/07 00:10:14;;;;;;;4.30;0.73;;;6.90;99.90;;;;;;5016336;28;20030;-82
2024/02/07 00:12:40;;;;;;;6.93;0.73;;;6.90;99.90;;;;;;5014412;28;20030;-81
2024/02/07 00:15:06;;;;;;;8.57;0.83;;;6.90;99.90;;;;;;5014422;28;20021;-81
2024/02/07 00:17:31;;;;;;;7.00;0.90;;;6.90;99.90;;;;;;5014662;28;20025;-81
2024/02/07 00:19:57;;;;;;;7.67;1.10;;;6.80;99.90;;;;;;5014382;28;20456;-81
2024/02/07 00:22:23;;;;;;;3.33;0.80;;;6.80;99.90;;;;;;5013041;28;20533;-81
2024/02/07 00:24:48;;;;;;;5.17;0.87;;;6.80;99.90;;;;;;5014307;28;20045;-81
2024/02/07 00:27:14;;;;;;;11.13;1.23;;;6.80;99.90;;;;;;5012944;28;20021;-83
2024/02/07 00:29:40;;;;;;;9.23;0.90;;;6.80;99.90;;;;;;5012594;28;20026;-81
2024/02/07 00:32:06;;;;;;;8.17;0.90;;;6.80;99.90;;;;;;5013944;28;20030;-81
2024/02/07 00:34:33;;;;;;;10.47;1.00;;;6.70;99.90;;;;;;5013987;28;20152;-81
2024/02/07 00:36:59;;;;;;;10.27;1.20;;;6.70;99.90;;;;;;5012714;28;20022;-81
2024/02/07 00:39:25;;;;;;;7.93;0.93;;;6.70;99.90;;;;;;5012717;28;20041;-83
2024/02/07 00:41:50;;;;;;;8.87;0.90;;;6.70;99.90;;;;;;5012753;28;20014;-83
2024/02/07 00:44:16;;;;;;;3.70;0.70;;;6.70;99.90;;;;;;5013532;28;20096;-82
2024/02/07 00:46:42;;;;;;;6.37;0.83;;;6.60;99.90;;;;;;5013422;28;20029;-80
2024/02/07 00:49:12;;;;;;;5.30;0.70;;;6.60;99.90;;;;;;5013710;28;20120;-81
2024/02/07 00:51:38;;;;;;;7.57;0.90;;;6.60;99.90;;;;;;5013691;28;20120;-80
2024/02/07 00:54:04;;;;;;;9.40;1.00;;;6.60;99.90;;;;;;5013530;28;20030;-81
2024/02/07 00:56:30;;;;;;;9.50;0.90;;;6.60;99.90;;;;;;5012282;28;20025;-81
2024/02/07 00:58:57;;;;;;;8.90;1.10;;;6.60;99.90;;;;;;5014308;28;20037;-82
2024/02/07 01:01:22;;;;;;;6.93;0.70;;;6.60;99.90;;;;;;5012739;28;20105;-80
2024/02/07 01:03:48;;;;;;;5.73;0.73;;;6.50;99.90;;;;;;5013674;28;20057;-81
2024/02/07 01:06:14;;;;;;;6.63;0.67;;;6.50;99.90;;;;;;5012259;28;20022;-81
2024/02/07 01:08:40;;;;;;;6.10;0.73;;;6.50;99.90;;;;;;5013527;28;20458;-81
2024/02/07 01:11:06;;;;;;;6.70;1.23;;;6.50;99.90;;;;;;5013454;28;20065;-81
2024/02/07 01:13:31;;;;;;;4.37;0.83;;;6.40;99.90;;;;;;5013470;28;20470;-81
2024/02/07 01:15:57;;;;;;;4.67;0.80;;;6.40;99.90;;;;;;5013269;28;20100;-81
2024/02/07 01:18:23;;;;;;;8.93;1.07;;;6.40;99.90;;;;;;5013520;28;20041;-82
2024/02/07 01:20:49;;;;;;;3.17;0.77;;;6.40;99.90;;;;;;5012230;28;20026;-81
2024/02/07 01:23:15;;;;;;;6.77;1.10;;;6.30;99.90;;;;;;5013719;28;20070;-81
2024/02/07 01:25:42;;;;;;;6.57;0.60;;;6.30;99.90;;;;;;5013497;28;20048;-82
2024/02/07 01:28:08;;;;;;;9.93;1.30;;;6.40;99.90;;;;;;5013353;28;20025;-81
2024/02/07 01:30:34;;;;;;;8.17;0.90;;;6.30;99.90;;;;;;5012924;28;20497;-81
2024/02/07 01:33:01;;;;;;;5.60;0.70;;;6.30;99.90;;;;;;5013089;28;20026;-83
2024/02/07 01:35:30;;;;;;;7.83;0.60;;;6.30;99.90;;;;;;5013382;28;20026;-81
2024/02/07 01:38:04;;;;;;;4.37;0.70;;;6.30;99.90;;;;;;5011935;28;20072;-82
2024/02/07 01:40:43;;;;;;;5.70;0.70;;;6.30;99.90;;;;;;5012947;28;20026;-80
2024/02/07 01:43:09;;;;;;;7.50;0.60;;;6.30;99.90;;;;;;5012070;28;20049;-85
2024/02/07 01:45:35;;;;;;;6.30;0.87;;;6.30;99.90;;;;;;5014329;28;20048;-84
2024/02/07 01:48:02;;;;;;;8.60;0.90;;;6.20;99.90;;;;;;5011905;28;20026;-86
2024/02/07 01:50:30;;;;;;;13.47;0.80;;;6.10;99.90;;;;;;5013202;28;20112;-85
2024/02/07 01:53:00;;;;;;;9.30;0.97;;;6.00;99.90;;;;;;5013780;28;20153;-82
2024/02/07 01:55:27;;;;;;;8.27;0.90;;;6.00;99.90;;;;;;5012292;28;20080;-88
2024/02/07 01:57:54;;;;;;;9.27;1.07;;;5.90;99.90;;;;;;5011744;28;20022;-83
2024/02/07 02:00:21;;;;;;;5.83;0.70;;;5.90;99.90;;;;;;5011917;28;20493;-83
2024/02/07 02:02:51;;;;;;;7.57;1.23;;;5.80;99.90;;;;;;5013885;28;20478;-81
2024/02/07 02:05:16;;;;;;;6.60;0.83;;;5.80;99.90;;;;;;5013241;28;20021;-84
2024/02/07 02:07:43;;;;;;;10.60;0.90;;;5.90;99.90;;;;;;5013320;28;20555;-81
2024/02/07 02:10:10;;;;;;;10.83;0.80;;;5.90;99.90;;;;;;5011224;28;20072;-80
2024/02/07 02:12:36;;;;;;;8.23;1.40;;;5.80;99.90;;;;;;5013798;28;20021;-81
2024/02/07 02:15:04;;;;;;;7.97;0.90;;;5.80;99.90;;;;;;5016818;28;20106;-81
2024/02/07 02:17:30;;;;;;;9.67;1.33;;;5.80;99.90;;;;;;5016871;28;20014;-81
2024/02/07 02:19:59;;;;;;;10.30;1.53;;;5.80;99.90;;;;;;5016426;28;20109;-81
2024/02/07 02:22:50;;;;;;;10.77;1.20;;;5.90;99.90;;;;;;5016028;28;20485;-81
2024/02/07 02:25:34;;;;;;;5.70;0.70;;;5.80;99.90;;;;;;5016569;28;20041;-81
2024/02/07 02:28:29;;;;;;;8.05;1.15;;;5.80;99.90;;;;;;5017166;28;20030;-80
2024/02/07 02:30:58;;;;;;;5.40;0.80;;;5.80;99.90;;;;;;5015186;28;20022;-82
2024/02/07 02:33:26;;;;;;;8.50;0.73;;;5.80;99.90;;;;;;5015094;28;20045;-81
2024/02/07 02:35:53;;;;;;;5.63;0.80;;;5.80;99.90;;;;;;5016407;28;20207;-81
2024/02/07 02:38:20;;;;;;;10.43;1.00;;;5.80;99.90;;;;;;5016192;28;20117;-81
2024/02/07 02:40:48;;;;;;;7.27;0.73;;;5.80;99.90;;;;;;5016048;28;20038;-81
2024/02/07 02:43:14;;;;;;;4.63;0.90;;;5.80;99.90;;;;;;5016167;28;20029;-80
2024/02/07 02:45:40;;;;;;;9.83;0.83;;;5.70;99.90;;;;;;5016321;28;20038;-81
2024/02/07 02:48:06;;;;;;;10.70;1.33;;;5.80;99.90;;;;;;5015950;28;20026;-81
2024/02/07 02:50:33;;;;;;;9.27;0.97;;;5.80;99.90;;;;;;5014736;28;20030;-80
2024/02/07 02:52:59;;;;;;;14.80;1.33;;;5.80;99.90;;;;;;5015686;28;20026;-81
2024/02/07 02:55:25;;;;;;;11.43;1.23;;;5.80;99.90;;;;;;5016025;28;20093;-81
2024/02/07 02:57:51;;;;;;;6.30;0.80;;;5.80;99.90;;;;;;5016253;28;20022;-81
2024/02/07 03:00:20;;;;;;;9.53;1.13;;;5.80;99.90;;;;;;5016224;28;20022;-80
2024/02/07 03:02:46;;;;;;;4.47;1.03;;;5.80;99.90;;;;;;5016288;28;20025;-86
2024/02/07 03:08:15;;;;;;;5.33;0.80;;;5.80;99.90;;;;;;5016893;28;20115;-82
2024/02/07 03:10:43;;;;;;;4.27;0.70;;;5.70;99.90;;;;;;5016871;28;20025;-86
2024/02/07 03:13:10;;;;;;;6.53;0.70;;;5.60;99.90;;;;;;5016918;28;20026;-84
2024/02/07 03:15:36;;;;;;;10.70;0.97;;;5.50;99.90;;;;;;5016569;28;20022;-88
2024/02/07 03:18:02;;;;;;;4.83;0.60;;;5.50;99.90;;;;;;5016457;28;20018;-90
2024/02/07 03:20:28;;;;;;;8.20;0.80;;;5.40;99.90;;;;;;5016652;28;20053;-89
2024/02/07 03:22:56;;;;;;;9.73;1.77;;;5.30;99.90;;;;;;5016103;28;20386;-81
2024/02/07 03:25:22;;;;;;;9.50;1.10;;;5.30;99.90;;;;;;5015024;28;20026;-80
2024/02/07 03:27:51;;;;;;;12.30;1.00;;;5.20;99.90;;;;;;5015525;28;20065;-81
2024/02/07 03:30:21;;;;;;;11.40;1.10;;;5.20;99.90;;;;;;5015796;28;20022;-83
2024/02/07 03:32:47;;;;;;;9.00;0.90;;;5.20;99.90;;;;;;5016178;28;20072;-82
2024/02/07 03:35:14;;;;;;;7.47;0.63;;;5.10;99.90;;;;;;5015426;28;20026;-82
2024/02/07 03:37:40;;;;;;;8.13;1.27;;;5.10;99.90;;;;;;5015388;28;20052;-83
2024/02/07 03:40:12;;;;;;;9.43;1.00;;;5.00;99.90;;;;;;5015295;28;20100;-81
2024/02/07 03:42:38;;;;;;;6.87;0.70;;;5.00;99.90;;;;;;5015876;28;20327;-84
2024/02/07 03:45:06;;;;;;;11.57;0.80;;;5.10;99.90;;;;;;5013858;28;20022;-88
2024/02/07 03:47:32;;;;;;;9.27;0.97;;;5.10;99.90;;;;;;5014574;28;20102;-85
2024/02/07 03:49:58;;;;;;;7.77;0.70;;;5.00;99.90;;;;;;5015435;28;20026;-85
2024/02/07 03:52:24;;;;;;;9.03;1.10;;;5.00;99.90;;;;;;5014781;28;20593;-82
2024/02/07 03:54:50;;;;;;;4.23;0.73;;;5.00;99.90;;;;;;5015208;28;20037;-84
2024/02/07 03:57:20;;;;;;;6.10;0.77;;;5.00;99.90;;;;;;5013661;28;20018;-82
2024/02/07 03:59:49;;;;;;;5.77;0.50;;;5.00;99.90;;;;;;5014386;28;20033;-82
2024/02/07 04:02:22;;;;;;;8.40;0.80;;;5.00;99.90;;;;;;5013828;28;20469;-80
2024/02/07 04:04:51;;;;;;;7.50;1.20;;;5.00;99.90;;;;;;5014678;28;20485;-83
2024/02/07 04:07:26;;;;;;;9.10;0.90;;;5.00;99.90;;;;;;5013350;28;20529;-83
2024/02/07 04:09:52;;;;;;;6.53;0.83;;;5.00;99.90;;;;;;5013408;28;20092;-80
2024/02/07 05:17:21;;;;;;;8.37;1.10;;;5.20;99.90;;;;;;5033334;28;20385;-82
2024/02/07 05:19:50;;;;;;;9.88;1.33;;;5.20;99.90;;;;;;5033141;28;20373;-81
2024/02/07 05:22:16;;;;;;;12.03;1.23;;;5.20;99.90;;;;;;5033219;28;20029;-81
2024/02/07 05:24:45;;;;;;;15.83;1.67;;;5.20;99.90;;;;;;5032879;28;20482;-81
2024/02/07 05:27:12;;;;;;;18.27;1.30;;;5.20;99.90;;;;;;5033121;28;20030;-81
2024/02/07 05:29:43;;;;;;;13.80;1.40;;;5.20;99.90;;;;;;5033320;28;20036;-81
2024/02/07 05:32:11;;;;;;;19.03;1.20;;;5.20;99.90;;;;;;5032694;28;20084;-80
2024/02/07 05:34:36;;;;;;;11.27;1.33;;;5.20;99.90;;;;;;5031669;28;20032;-81
2024/02/07 05:37:03;;;;;;;7.03;1.10;;;5.20;99.90;;;;;;5032556;28;20104;-80
2024/02/07 05:39:35;;;;;;;11.20;1.13;;;5.20;99.90;;;;;;5032734;28;20385;-81
2024/02/07 05:42:01;;;;;;;15.47;1.30;;;5.30;99.90;;;;;;5033068;28;20025;-81
2024/02/07 05:44:27;;;;;;;12.33;1.37;;;5.20;99.90;;;;;;5032559;28;20075;-81
2024/02/07 05:46:53;;;;;;;5.37;1.10;;;5.30;99.90;;;;;;5032582;28;20025;-80
2024/02/07 05:49:19;;;;;;;8.80;1.20;;;5.20;99.90;;;;;;5039277;28;20032;-81
2024/02/07 05:51:57;;;;;;;13.87;1.20;;;5.20;99.90;;;;;;5039422;28;20548;-81
2024/02/07 05:54:24;;;;;;;13.37;1.10;;;5.20;99.90;;;;;;5038292;28;20030;-81
2024/02/07 05:56:50;;;;;;;10.70;1.30;;;5.20;99.90;;;;;;5037864;28;20388;-81
2024/02/07 05:59:17;;;;;;;9.93;1.27;;;5.20;99.90;;;;;;5039236;28;20086;-81
2024/02/07 06:01:44;;;;;;;12.07;1.30;;;5.20;99.90;;;;;;5039104;28;20021;-80
2024/02/07 06:04:10;;;;;;;13.47;1.63;;;5.20;99.90;;;;;;5037986;28;20496;-81
2024/02/07 06:06:36;;;;;;;11.73;1.43;;;5.20;99.90;;;;;;5039245;28;20049;-83
2024/02/07 06:09:04;;;;;;;9.67;1.63;;;5.20;99.90;;;;;;5040544;28;20083;-84
2024/02/07 06:11:32;;;;;;;7.17;1.47;;;5.20;99.90;;;;;;5041305;28;20022;-85
2024/02/07 06:14:04;;;;;;;11.53;1.50;;;5.20;99.90;;;;;;5041604;28;20068;-86
2024/02/07 06:16:30;;;;;;;10.70;1.10;;;5.20;99.90;;;;;;5040463;28;20104;-85
2024/02/07 06:18:56;;;;;;;7.73;1.30;;;5.20;99.90;;;;;;5041511;28;21895;-85
2024/02/07 06:21:22;;;;;;;11.77;1.23;;;5.20;99.90;;;;;;5039464;28;20461;-85
2024/02/07 06:23:48;;;;;;;10.07;1.30;;;5.20;99.90;;;;;;5038498;28;20029;-84
2024/02/07 06:26:15;;;;;;;9.57;1.57;;;5.20;99.90;;;;;;5040154;28;20059;-85
2024/02/07 06:28:40;;;;;;;11.47;1.60;;;5.20;99.90;;;;;;5021431;28;20034;-85
2024/02/07 06:31:06;;;;;;;11.90;1.60;;;5.20;99.90;;;;;;5019148;28;20493;-84
2024/02/07 06:33:31;;;;;;;12.10;1.20;;;5.40;99.90;;;;;;5034757;28;20061;-85
2024/02/07 06:35:57;;;;;;;11.13;1.50;;;5.20;99.90;;;;;;5018809;28;20079;-84
2024/02/07 06:38:23;;;;;;;20.83;1.70;;;5.20;99.90;;;;;;5018662;28;20120;-85
2024/02/07 06:40:48;;;;;;;13.47;1.63;;;5.20;99.90;;;;;;5019807;28;20073;-84
2024/02/07 06:43:14;;;;;;;12.43;1.50;;;5.20;99.90;;;;;;5018347;28;20029;-84
2024/02/07 06:45:40;;;;;;;13.57;1.33;;;5.20;99.90;;;;;;5018412;28;20025;-85
2024/02/07 06:48:05;;;;;;;11.63;1.67;;;5.20;99.90;;;;;;5018995;28;20040;-84
2024/02/07 06:50:31;;;;;;;11.37;1.33;;;5.30;99.90;;;;;;5019721;28;20514;-84
2024/02/07 06:52:57;;;;;;;10.47;1.37;;;5.20;99.90;;;;;;5019801;28;20057;-85
2024/02/07 06:55:23;;;;;;;9.43;1.30;;;5.30;99.90;;;;;;5019557;28;20068;-85
2024/02/07 06:57:49;;;;;;;10.67;1.33;;;5.20;99.90;;;;;;5019261;28;20028;-85
2024/02/07 07:00:17;;;;;;;10.83;1.70;;;5.20;99.90;;;;;;5016572;28;20029;-84
2024/02/07 07:02:43;;;;;;;8.43;1.43;;;5.20;99.90;;;;;;5016262;28;20045;-84
2024/02/07 07:05:09;;;;;;;12.90;1.30;;;5.20;99.90;;;;;;5016596;28;20021;-84
2024/02/07 07:07:34;;;;;;;8.57;1.57;;;5.20;99.90;;;;;;5014820;28;20437;-84
2024/02/07 07:10:00;;;;;;;10.13;2.03;;;5.20;99.90;;;;;;5016269;28;20022;-85
2024/02/07 07:12:26;;;;;;;12.17;1.50;;;5.20;99.90;;;;;;5014778;28;20026;-84
2024/02/07 07:14:52;;;;;;;13.83;1.30;;;5.20;99.90;;;;;;5014702;28;20041;-86
2024/02/07 07:17:17;;;;;;;11.10;1.20;;;5.20;99.90;;;;;;5014802;28;20018;-84
2024/02/07 07:19:43;;;;;;;9.87;1.60;;;5.20;99.90;;;;;;5016011;28;20033;-85
2024/02/07 07:22:10;;;;;;;11.00;1.97;;;5.30;99.90;;;;;;5016105;28;20470;-85
2024/02/07 07:24:37;;;;;;;16.10;1.70;;;5.20;99.90;;;;;;5013245;28;20022;-85
2024/02/07 07:27:03;;;;;;;14.27;1.80;;;5.30;99.90;;;;;;5023416;28;20034;-85
2024/02/07 07:29:29;;;;;;;13.03;1.80;;;5.30;99.90;;;;;;5034539;28;20025;-85
2024/02/07 07:31:54;;;;;;;11.07;1.73;;;5.30;99.90;;;;;;5035749;28;20017;-85
2024/02/07 07:34:21;;;;;;;15.33;2.40;;;5.30;99.90;;;;;;5036037;28;20075;-85
2024/02/07 07:36:47;;;;;;;12.20;1.70;;;5.30;99.90;;;;;;5035848;28;20362;-85
2024/02/07 07:39:12;;;;;;;11.60;2.03;;;5.30;99.90;;;;;;5035050;28;20078;-85
2024/02/07 07:41:38;;;;;;;9.23;1.73;;;5.40;99.90;;;;;;5034627;28;20377;-85
2024/02/07 07:44:05;;;;;;;14.23;1.73;;;5.40;99.90;;;;;;5034854;28;20021;-84
2024/02/07 07:46:31;;;;;;;11.53;1.80;;;5.40;99.90;;;;;;5034558;28;20036;-85
2024/02/07 07:48:56;;;;;;;11.93;1.70;;;5.40;99.90;;;;;;5034854;28;20026;-85
2024/02/07 07:51:22;;;;;;;18.10;2.20;;;5.40;99.90;;;;;;5033242;28;20037;-85
2024/02/07 07:53:48;;;;;;;19.10;3.00;;;5.40;99.90;;;;;;5035183;28;20036;-85
2024/02/07 07:56:14;;;;;;;18.17;2.47;;;5.40;99.90;;;;;;5023270;28;20033;-84
2024/02/07 07:58:42;;;;;;;14.23;3.13;;;5.40;99.90;;;;;;5025318;28;20055;-85
2024/02/07 08:01:19;;;;;;;12.73;3.20;;;5.50;99.90;;;;;;5025865;28;20056;-85
2024/02/07 08:03:45;;;;;;;12.87;3.23;;;5.50;99.90;;;;;;5026015;28;20029;-85
2024/02/07 08:06:11;;;;;;;11.53;2.70;;;5.40;99.90;;;;;;5025931;28;20032;-85
2024/02/07 08:08:38;;;;;;;13.67;2.47;;;5.50;99.90;;;;;;5024273;28;20029;-85
2024/02/07 08:11:04;;;;;;;12.40;2.60;;;5.50;99.90;;;;;;5024044;28;20531;-85
2024/02/07 08:13:31;;;;;;;14.37;2.50;;;5.50;99.90;;;;;;5025802;28;20029;-85
2024/02/07 08:15:59;;;;;;;12.00;3.17;;;5.50;99.90;;;;;;5023240;28;20359;-85
2024/02/07 08:18:25;;;;;;;14.53;2.63;;;5.50;99.90;;;;;;5023662;28;20026;-85
2024/02/07 08:20:53;;;;;;;17.80;2.40;;;5.50;99.90;;;;;;5026202;28;20026;-85
2024/02/07 08:23:19;;;;;;;20.13;3.13;;;5.50;99.90;;;;;;5033146;28;20025;-85
2024/02/07 08:25:44;;;;;;;10.50;2.70;;;5.50;99.90;;;;;;5033747;28;20087;-86
2024/02/07 08:28:10;;;;;;;11.60;2.80;;;5.50;99.90;;;;;;5035202;28;20026;-86
2024/02/07 08:30:35;;;;;;;15.10;3.00;;;5.50;99.90;;;;;;5031205;28;20044;-86
2024/02/07 08:33:01;;;;;;;9.67;2.20;;;5.60;99.90;;;;;;5034748;28;20108;-85
2024/02/07 08:35:27;;;;;;;13.80;3.13;;;5.60;99.90;;;;;;5033860;28;20457;-85
2024/02/07 08:37:58;;;;;;;8.90;2.83;;;5.70;99.90;;;;;;5034408;28;20384;-85
2024/02/07 08:40:31;;;;;;;13.13;2.70;;;5.70;99.90;;;;;;5034450;28;20021;-84
2024/02/07 08:42:56;;;;;;;17.27;3.17;;;5.70;99.90;;;;;;5034594;28;20480;-85
2024/02/07 08:45:22;;;;;;;20.97;3.10;;;5.70;99.90;;;;;;5033941;28;20021;-85
2024/02/07 08:47:48;;;;;;;16.77;3.43;;;5.70;99.90;;;;;;5034672;28;20386;-85
2024/02/07 08:50:14;;;;;;;16.33;3.63;;;5.70;99.90;;;;;;5034532;28;20108;-84
2024/02/07 08:52:41;;;;;;;14.33;3.67;;;5.80;99.90;;;;;;5033309;28;20050;-87
2024/02/07 08:55:10;;;;;;;17.67;3.80;;;5.80;99.90;;;;;;5034955;28;20037;-87
2024/02/07 08:57:36;;;;;;;18.43;4.10;;;5.80;99.90;;;;;;5033184;28;20026;-87
2024/02/07 09:00:04;;;;;;;14.47;3.23;;;5.90;99.90;;;;;;5030534;28;20037;-85
2024/02/07 09:02:29;;;;;;;13.63;3.07;;;5.90;99.90;;;;;;5014534;28;20025;-87
2024/02/07 09:04:56;;;;;;;14.23;3.33;;;5.90;99.90;;;;;;5014694;28;20021;-87
2024/02/07 09:07:24;;;;;;;17.33;3.63;;;5.90;99.90;;;;;;5013571;28;20014;-87
2024/02/07 09:09:50;;;;;;;15.40;3.77;;;6.00;99.90;;;;;;5014386;28;20612;-85
2024/02/07 09:12:16;;;;;;;14.53;3.20;;;5.90;99.90;;;;;;5013202;28;20112;-86
2024/02/07 09:14:41;;;;;;;12.43;4.00;;;5.90;99.90;;;;;;5013832;28;20026;-85
2024/02/07 09:17:07;;;;;;;13.43;3.50;;;6.00;99.90;;;;;;5014587;28;20366;-85
2024/02/07 09:19:33;;;;;;;20.17;4.43;;;6.00;99.90;;;;;;5014398;28;20504;-85
2024/02/07 09:21:58;;;;;;;20.23;3.67;;;5.90;99.90;;;;;;5013898;28;20478;-88
2024/02/07 09:24:24;;;;;;;19.00;3.67;;;6.00;99.90;;;;;;5014901;28;20109;-88
2024/02/07 09:26:49;;;;;;;15.20;3.70;;;6.00;99.90;;;;;;5014313;28;20022;-88
2024/02/07 09:29:15;;;;;;;19.77;3.77;;;6.00;99.90;;;;;;5015031;28;20042;-88
2024/02/07 09:31:41;;;;;;;23.17;4.40;;;6.00;99.90;;;;;;5014514;28;20546;-88
2024/02/07 09:34:09;;;;;;;15.10;3.50;;;6.10;99.90;;;;;;5015036;28;20496;-87
2024/02/07 09:36:38;;;;;;;14.00;3.50;;;6.10;99.90;;;;;;5014452;28;20040;-87
2024/02/07 09:39:19;;;;;;;15.90;3.67;;;6.10;99.90;;;;;;5015468;28;20080;-87
2024/02/07 09:41:46;;;;;;;23.50;4.67;;;6.20;99.90;;;;;;5014982;28;20021;-87
2024/02/07 09:44:15;;;;;;;15.13;3.50;;;6.30;99.90;;;;;;5015281;28;20014;-88
2024/02/07 09:46:43;;;;;;;19.40;4.53;;;6.30;99.90;;;;;;5014408;28;20481;-88
2024/02/07 09:49:14;;;;;;;16.00;4.00;;;6.40;99.90;;;;;;5018086;28;20021;-87
2024/02/07 09:51:41;;;;;;;22.83;4.90;;;6.40;99.90;;;;;;5019445;28;20188;-86
2024/02/07 09:54:11;;;;;;;15.93;4.03;;;6.40;99.90;;;;;;5019859;28;20026;-87
2024/02/07 09:56:37;;;;;;;26.03;4.77;;;6.50;99.90;;;;;;5015876;28;20029;-88
2024/02/07 09:59:04;;;;;;;18.77;4.40;;;6.50;99.90;;;;;;5015327;28;20439;-88
2024/02/07 10:01:31;;;;;;;19.90;4.33;;;6.50;99.90;;;;;;5014240;28;20458;-88
2024/02/07 10:04:01;;;;;;;16.97;4.63;;;6.60;99.90;;;;;;5013913;28;20022;-87
2024/02/07 10:06:27;;;;;;;21.57;4.60;;;6.60;99.90;;;;;;5012089;28;20032;-86
2024/02/07 10:08:54;;;;;;;23.90;5.17;;;6.70;99.90;;;;;;5013514;28;20040;-85
2024/02/07 10:11:21;;;;;;;13.00;4.50;;;6.80;99.90;;;;;;5013315;28;20530;-85
2024/02/07 10:13:47;;;;;;;26.17;5.10;;;6.80;99.90;;;;;;5012440;28;20051;-86
2024/02/07 10:16:13;;;;;;;23.47;4.73;;;6.90;99.90;;;;;;5013440;28;20037;-86
2024/02/07 10:18:38;;;;;;;19.47;4.90;;;6.90;99.90;;;;;;5011962;28;20034;-81
2024/02/07 10:21:04;;;;;;;17.23;4.83;;;7.00;99.90;;;;;;5011535;28;20022;-82
2024/02/07 10:23:31;;;;;;;19.70;5.33;;;7.00;99.90;;;;;;5013124;28;20474;-83
2024/02/07 10:25:59;;;;;;;19.77;5.33;;;7.10;99.90;;;;;;5011934;28;20037;-83
2024/02/07 10:28:26;;;;;;;19.40;5.37;;;7.10;99.90;;;;;;5012637;28;20064;-83
2024/02/07 10:31:02;;;;;;;17.67;5.20;;;7.20;99.90;;;;;;5011679;28;20037;-83
2024/02/07 10:33:38;;;;;;;15.17;5.07;;;7.20;99.90;;;;;;5021163;28;20488;-83
2024/02/07 10:36:05;;;;;;;21.63;5.90;;;7.30;99.90;;;;;;5028735;28;20478;-83
2024/02/07 10:38:32;;;;;;;24.27;5.90;;;7.30;99.90;;;;;;5027072;28;20076;-82
2024/02/07 10:41:00;;;;;;;24.33;5.57;;;7.30;99.90;;;;;;5024558;28;20034;-83
2024/02/07 10:43:35;;;;;;;18.90;4.90;;;7.40;99.90;;;;;;5032534;28;20017;-82
2024/02/07 10:46:03;;;;;;;17.10;5.67;;;7.40;99.90;;;;;;5035048;28;20113;-83
2024/02/07 10:48:30;;;;;;;21.17;5.70;;;7.50;99.90;;;;;;5034733;28;20487;-83
2024/02/07 10:50:59;;;;;;;23.50;5.73;;;7.60;99.90;;;;;;5033350;28;20132;-82
2024/02/07 10:53:31;;;;;;;20.37;4.63;;;7.60;99.90;;;;;;5034775;28;20052;-83
2024/02/07 10:55:59;;;;;;;20.40;5.13;;;7.70;99.90;;;;;;5035970;28;20072;-83
2024/02/07 10:58:27;;;;;;;20.13;5.60;;;7.70;99.90;;;;;;5035976;28;20481;-83
2024/02/07 11:00:53;;;;;;;17.77;5.00;;;7.80;99.90;;;;;;5035546;28;20057;-83
2024/02/07 11:03:21;;;;;;;13.37;4.57;;;7.90;99.90;;;;;;5035702;28;20393;-81
2024/02/07 11:05:50;;;;;;;20.43;5.63;;;7.90;99.90;;;;;;5035206;28;20021;-84
2024/02/07 11:08:17;;;;;;;20.13;5.17;;;8.00;99.90;;;;;;5035540;28;20049;-82
2024/02/07 11:10:43;;;;;;;14.47;4.37;;;8.10;99.90;;;;;;5034517;28;20021;-83
2024/02/07 11:13:10;;;;;;;20.73;4.33;;;8.20;99.90;;;;;;5033512;28;20540;-83
2024/02/07 11:15:39;;;;;;;22.40;4.50;;;8.40;99.90;;;;;;5033918;28;20030;-82
2024/02/07 11:18:09;;;;;;;15.37;4.77;;;8.50;99.90;;;;;;5034489;28;20174;-82
2024/02/07 11:20:35;;;;;;;16.40;3.43;;;8.60;99.90;;;;;;5032492;28;20068;-83
2024/02/07 11:23:08;;;;;;;20.58;3.63;;;8.80;99.90;;;;;;5035251;28;20032;-84
2024/02/07 11:25:35;;;;;;;23.00;3.50;;;8.90;99.90;;;;;;5035037;28;20100;-83
2024/02/07 11:28:01;;;;;;;17.63;2.72;;;9.10;99.90;;;;;;5033845;28;20108;-83
2024/02/07 11:30:28;;;;;;;16.73;2.92;;;9.30;99.90;;;;;;5035207;28;20155;-83
2024/02/07 11:32:55;;;;;;;14.15;1.73;;;9.50;99.90;;;;;;5034014;28;20064;-84
2024/02/07 11:35:21;;;;;;;21.75;2.55;;;9.70;99.90;;;;;;5035085;28;20025;-84
2024/02/07 11:37:51;;;;;;;11.35;1.83;;;10.00;99.90;;;;;;5035260;28;20029;-84
2024/02/07 11:40:18;;;;;;;12.35;2.10;;;10.30;99.90;;;;;;5033761;28;20028;-84
2024/02/07 11:42:44;;;;;;;15.35;1.73;;;10.70;99.90;;;;;;5035048;28;20021;-84
2024/02/07 11:45:15;;;;;;;10.60;1.50;;;11.10;99.90;;;;;;5034256;28;20022;-84
2024/02/07 11:47:44;;;;;;;7.75;1.50;;;11.60;99.90;;;;;;5034806;28;20083;-84
2024/02/07 11:50:14;;;;;;;14.85;1.20;;;11.90;99.90;;;;;;5034711;28;20045;-84
2024/02/07 11:52:41;;;;;;;14.20;1.92;;;12.20;99.90;;;;;;5034969;28;20425;-85
2024/02/07 11:55:14;;;;;;;12.52;1.67;;;12.40;99.90;;;;;;5029238;28;20408;-84
2024/02/07 11:57:45;;;;;;;10.02;1.52;;;12.60;99.90;;;;;;5029815;28;20027;-85
2024/02/07 12:00:18;;;;;;;12.10;2.08;;;13.00;99.90;;;;;;5030866;28;20167;-85
2024/02/07 12:02:48;;;;;;;13.88;1.50;;;13.10;99.90;;;;;;5034083;28;20033;-82
2024/02/07 12:05:18;;;;;;;13.18;1.77;;;13.30;99.90;;;;;;5034122;28;20079;-82
2024/02/07 12:07:47;;;;;;;11.70;1.23;;;13.60;99.90;;;;;;5031366;28;20025;-82
2024/02/07 12:10:13;;;;;;;11.70;1.35;;;13.90;99.90;;;;;;5034192;28;20029;-83
2024/02/07 12:12:38;;;;;;;10.57;1.50;;;14.20;99.90;;;;;;5034678;28;20100;-82
2024/02/07 12:15:05;;;;;;;8.98;1.60;;;14.50;99.90;;;;;;5036919;28;20096;-81
2024/02/07 12:17:32;;;;;;;9.57;1.33;;;14.50;99.90;;;;;;5033987;28;20040;-82
2024/02/07 12:19:58;;;;;;;15.43;1.80;;;14.40;99.90;;;;;;5033878;28;20528;-82
2024/02/07 12:22:24;;;;;;;8.82;1.10;;;14.20;99.90;;;;;;5032776;28;20392;-82
2024/02/07 12:24:51;;;;;;;12.02;1.52;;;14.20;99.90;;;;;;5034154;28;20108;-83
2024/02/07 12:27:17;;;;;;;12.07;2.05;;;14.10;99.90;;;;;;5034238;28;20022;-82
2024/02/07 12:29:50;;;;;;;14.35;1.63;;;14.10;99.90;;;;;;5032436;28;20481;-82
2024/02/07 12:32:17;;;;;;;10.70;1.75;;;14.10;99.90;;;;;;5034267;28;20037;-82
2024/02/07 12:34:43;;;;;;;13.40;1.58;;;14.20;99.90;;;;;;5032500;28;20481;-82
2024/02/07 12:37:10;;;;;;;13.75;1.65;;;14.10;99.90;;;;;;5033745;28;20359;-82
2024/02/07 12:39:36;;;;;;;7.80;1.70;;;14.00;99.90;;;;;;5032526;28;20021;-82
2024/02/07 12:42:04;;;;;;;12.68;1.73;;;13.80;99.90;;;;;;5034338;28;20026;-83
2024/02/07 12:44:31;;;;;;;10.57;1.30;;;13.50;99.90;;;;;;5033642;28;20026;-82
2024/02/07 12:46:57;;;;;;;9.30;1.65;;;13.40;99.90;;;;;;5031971;28;20500;-82
2024/02/07 12:49:24;;;;;;;13.10;1.27;;;13.20;99.90;;;;;;5033050;28;20046;-83
2024/02/07 12:51:50;;;;;;;10.75;1.33;;;13.00;99.90;;;;;;5033333;28;20045;-84
2024/02/07 12:54:17;;;;;;;10.85;1.10;;;12.80;99.90;;;;;;5033445;28;20022;-83
2024/02/07 12:56:51;;;;;;;10.88;1.15;;;12.70;99.90;;;;;;5033296;28;20053;-84
2024/02/07 12:59:35;;;;;;;13.98;1.60;;;12.60;99.90;;;;;;5033270;28;20030;-83
2024/02/07 13:02:03;;;;;;;11.98;2.30;;;12.40;99.90;;;;;;5032038;28;20435;-83
2024/02/07 13:04:30;;;;;;;11.57;2.17;;;12.30;99.90;;;;;;5031411;28;20025;-83
2024/02/07 13:07:00;;;;;;;12.55;1.52;;;12.40;99.90;;;;;;5031564;28;20026;-83
2024/02/07 13:09:28;;;;;;;13.90;1.52;;;12.70;99.90;;;;;;5033245;28;20029;-84
2024/02/07 13:11:55;;;;;;;10.93;1.25;;;13.30;99.90;;;;;;5019055;28;20038;-85
2024/02/07 13:14:21;;;;;;;9.07;1.45;;;13.90;99.90;;;;;;5013323;28;20034;-84
2024/02/07 13:16:46;;;;;;;11.57;2.25;;;14.40;99.90;;;;;;5031075;28;20018;-84
2024/02/07 13:19:13;;;;;;;8.23;1.33;;;14.80;99.90;;;;;;5031475;28;20044;-84
2024/02/07 13:21:43;;;;;;;9.90;1.30;;;15.30;99.90;;;;;;5032677;28;20082;-84
2024/02/07 13:24:17;;;;;;;8.70;1.27;;;15.60;99.90;;;;;;5029051;28;20017;-84
2024/02/07 13:26:43;;;;;;;13.98;2.13;;;15.70;99.90;;;;;;5031661;28;20508;-85
2024/02/07 13:29:09;;;;;;;11.80;1.33;;;15.80;99.90;;;;;;5033473;28;20021;-84
2024/02/07 13:31:35;;;;;;;7.72;1.27;;;15.80;99.90;;;;;;5033302;28;20381;-85
2024/02/07 13:34:01;;;;;;;7.28;1.23;;;16.00;99.90;;;;;;5033072;28;20025;-85
2024/02/07 13:36:27;;;;;;;5.45;1.40;;;16.30;99.90;;;;;;5033345;28;20572;-84
2024/02/07 13:38:53;;;;;;;9.45;1.17;;;16.50;99.90;;;;;;5033047;28;20083;-85
2024/02/07 13:41:20;;;;;;;9.50;1.70;;;16.50;99.80;;;;;;5031954;28;20044;-85
2024/02/07 13:43:46;;;;;;;7.75;2.28;;;16.50;95.00;;;;;;5032171;28;20089;-85
2024/02/07 13:46:12;;;;;;;18.45;2.60;;;16.40;93.50;;;;;;5033033;28;20029;-85
2024/02/07 13:48:38;;;;;;;7.45;1.23;;;16.40;92.80;;;;;;5032513;28;20355;-85
2024/02/07 13:51:09;;;;;;;8.00;1.33;;;16.30;92.10;;;;;;5032680;28;20033;-85
2024/02/07 13:53:35;;;;;;;8.73;0.90;;;16.20;90.60;;;;;;5031838;28;20033;-85
2024/02/07 13:56:03;;;;;;;9.27;0.90;;;15.90;89.50;;;;;;5031788;28;20104;-84